createdAt,value
2019-03-29T00:05:25.909Z,100.00
2019-03-29T00:07:54.523Z,100.00
2019-03-29T00:10:23.145Z,100.00
2019-03-29T00:12:52.063Z,100.00
2019-03-29T00:15:20.696Z,100.00
2019-03-29T00:17:49.505Z,100.00
2019-03-29T00:20:18.111Z,99.79
2019-03-29T00:22:49.498Z,99.85
2019-03-29T00:25:18.113Z,100.00
2019-03-29T00:27:49.902Z,99.74
2019-03-29T00:30:18.455Z,99.66
2019-03-29T00:33:04.746Z,99.82
2019-03-29T00:35:34.124Z,99.95
2019-03-29T00:38:03.081Z,99.84
2019-03-29T00:40:31.748Z,99.81
2019-03-29T00:43:01.187Z,99.79
2019-03-29T00:45:29.831Z,99.87
2019-03-29T00:47:58.437Z,100.00
2019-03-29T00:50:27.418Z,100.00
2019-03-29T00:52:56.068Z,100.00
2019-03-29T00:55:24.678Z,100.00
2019-03-29T00:57:53.286Z,100.00
2019-03-29T01:00:22.102Z,100.00
2019-03-29T01:02:50.668Z,100.00
2019-03-29T01:05:19.322Z,100.00
2019-03-29T01:07:47.939Z,100.00
2019-03-29T01:10:18.201Z,100.00
2019-03-29T01:12:49.471Z,100.00
2019-03-29T01:15:18.205Z,100.00
2019-03-29T01:17:49.997Z,100.00
2019-03-29T01:20:18.649Z,100.00
2019-03-29T01:22:47.210Z,100.00
2019-03-29T01:25:17.385Z,100.00
2019-03-29T01:27:46.319Z,100.00
2019-03-29T01:30:15.134Z,99.63
2019-03-29T01:32:44.880Z,99.69
2019-03-29T01:35:13.783Z,99.79
2019-03-29T01:37:42.405Z,99.96
2019-03-29T01:40:11.309Z,100.00
2019-03-29T01:42:39.865Z,100.00
2019-03-29T01:45:09.763Z,100.00
2019-03-29T01:47:38.366Z,100.00
2019-03-29T01:50:08.132Z,100.00
2019-03-29T01:52:37.403Z,100.00
2019-03-29T01:55:07.227Z,100.00
2019-03-29T01:57:36.126Z,100.00
2019-03-29T02:00:06.433Z,100.00
2019-03-29T02:02:34.994Z,100.00
2019-03-29T02:05:04.917Z,100.00
2019-03-29T02:07:33.490Z,100.00
2019-03-29T02:10:02.072Z,100.00
2019-03-29T02:12:31.018Z,100.00
2019-03-29T02:15:00.047Z,100.00
2019-03-29T02:17:28.666Z,100.00
2019-03-29T02:19:58.104Z,100.00
2019-03-29T02:22:26.716Z,100.00
2019-03-29T02:24:55.337Z,100.00
2019-03-29T02:27:23.945Z,100.00
2019-03-29T02:29:52.560Z,100.00
2019-03-29T02:32:21.432Z,100.00
2019-03-29T02:34:50.093Z,100.00
2019-03-29T02:37:18.706Z,100.00
2019-03-29T02:39:47.418Z,100.00
2019-03-29T02:42:16.362Z,100.00
2019-03-29T02:44:46.809Z,100.00
2019-03-29T02:47:18.187Z,100.00
2019-03-29T02:49:50.195Z,100.00
2019-03-29T02:52:18.753Z,100.00
2019-03-29T02:54:47.403Z,100.00
2019-03-29T02:57:17.652Z,100.00
2019-03-29T02:59:49.438Z,100.00
2019-03-29T03:02:18.048Z,100.00
2019-03-29T03:04:48.304Z,100.00
2019-03-29T03:07:19.972Z,100.00
2019-03-29T03:09:48.701Z,100.00
2019-03-29T03:12:17.324Z,100.00
2019-03-29T03:14:47.462Z,100.00
2019-03-29T03:17:16.233Z,100.00
2019-03-29T03:19:46.560Z,100.00
2019-03-29T03:22:15.185Z,100.00
2019-03-29T03:24:43.801Z,100.00
2019-03-29T03:27:12.410Z,100.00
2019-03-29T03:29:40.998Z,100.00
2019-03-29T03:32:09.569Z,100.00
2019-03-29T03:34:38.203Z,100.00
2019-03-29T03:37:06.792Z,100.00
2019-03-29T03:39:35.497Z,100.00
2019-03-29T03:42:04.207Z,100.00
2019-03-29T03:44:32.818Z,100.00
2019-03-29T03:47:01.427Z,100.00
2019-03-29T03:49:30.042Z,100.00
2019-03-29T03:51:58.854Z,100.00
2019-03-29T03:54:27.667Z,100.00
2019-03-29T03:56:56.589Z,100.00
2019-03-29T03:59:26.527Z,100.00
2019-03-29T04:01:55.131Z,100.00
2019-03-29T04:04:23.841Z,100.00
2019-03-29T04:06:52.451Z,100.00
2019-03-29T04:09:21.046Z,100.00
2019-03-29T04:11:49.624Z,100.00
2019-03-29T04:14:18.287Z,100.00
2019-03-29T04:16:46.899Z,100.00
2019-03-29T04:19:15.511Z,100.00
2019-03-29T04:21:46.450Z,100.00
2019-03-29T04:24:15.215Z,100.00
2019-03-29T04:26:43.824Z,100.00
2019-03-29T04:29:12.430Z,100.00
2019-03-29T04:31:41.040Z,100.00
2019-03-29T04:34:09.655Z,100.00
2019-03-29T04:36:38.265Z,100.00
2019-03-29T04:39:07.080Z,100.00
2019-03-29T04:41:35.706Z,100.00
2019-03-29T04:44:04.597Z,100.00
2019-03-29T04:46:33.324Z,100.00
2019-03-29T04:49:01.936Z,100.00
2019-03-29T04:51:30.813Z,100.00
2019-03-29T04:53:59.459Z,100.00
2019-03-29T04:56:28.071Z,100.00
2019-03-29T04:58:56.681Z,100.00
2019-03-29T05:01:25.358Z,100.00
2019-03-29T05:03:53.946Z,100.00
2019-03-29T05:06:22.611Z,100.00
2019-03-29T05:08:51.216Z,99.68
2019-03-29T05:11:19.772Z,99.60
2019-03-29T05:13:48.435Z,99.78
2019-03-29T05:16:16.995Z,99.66
2019-03-29T05:18:45.659Z,99.96
2019-03-29T05:21:15.154Z,100.00
2019-03-29T05:23:43.804Z,100.00
2019-03-29T05:26:19.836Z,100.00
2019-03-29T05:28:48.737Z,100.00
2019-03-29T05:34:18.700Z,100.00
2019-03-29T05:36:47.262Z,100.00
2019-03-29T05:39:17.623Z,100.00
2019-03-29T05:41:49.313Z,100.00
2019-03-29T05:44:17.972Z,100.00
2019-03-29T05:46:48.177Z,100.00
2019-03-29T05:49:19.870Z,100.00
2019-03-29T05:51:48.478Z,100.00
2019-03-29T05:54:17.089Z,100.00
2019-03-29T05:56:45.696Z,100.00
2019-03-29T05:59:16.999Z,100.00
2019-03-29T06:01:45.569Z,100.00
2019-03-29T06:04:14.513Z,100.00
2019-03-29T06:06:43.116Z,100.00
2019-03-29T06:09:11.832Z,100.00
2019-03-29T06:11:40.462Z,100.00
2019-03-29T06:14:09.049Z,100.00
2019-03-29T06:16:39.301Z,100.00
2019-03-29T06:19:08.143Z,99.65
2019-03-29T06:21:37.766Z,99.54
2019-03-29T06:24:06.376Z,99.26
2019-03-29T06:26:34.984Z,99.33
2019-03-29T06:29:03.576Z,99.41
2019-03-29T06:31:32.520Z,99.77
2019-03-29T06:34:01.128Z,99.58
2019-03-29T06:36:31.800Z,98.94
2019-03-29T06:39:01.741Z,98.21
2019-03-29T06:41:30.296Z,97.54
2019-03-29T06:43:59.293Z,97.35
2019-03-29T06:46:27.915Z,97.43
2019-03-29T06:48:56.950Z,96.78
2019-03-29T06:51:25.500Z,96.59
2019-03-29T06:53:54.173Z,96.18
2019-03-29T06:56:22.812Z,95.58
2019-03-29T06:58:51.415Z,95.51
2019-03-29T07:01:20.032Z,95.94
2019-03-29T07:03:48.747Z,95.84
2019-03-29T07:06:17.359Z,94.95
2019-03-29T07:08:47.548Z,94.56
2019-03-29T07:11:19.406Z,95.05
2019-03-29T07:13:57.492Z,94.91
2019-03-29T07:16:18.368Z,94.19
2019-03-29T07:18:46.976Z,94.35
2019-03-29T07:21:21.534Z,92.88
2019-03-29T07:23:48.056Z,92.76
2019-03-29T07:26:19.488Z,93.08
2019-03-29T07:28:48.447Z,92.70
2019-03-29T07:31:17.113Z,91.54
2019-03-29T07:33:47.264Z,92.30
2019-03-29T07:36:17.424Z,92.72
2019-03-29T07:38:49.019Z,92.37
2019-03-29T07:41:31.174Z,92.72
2019-03-29T07:43:47.900Z,92.54
2019-03-29T07:46:18.160Z,91.68
2019-03-29T07:48:49.612Z,91.30
2019-03-29T07:51:18.196Z,91.89
2019-03-29T07:53:49.740Z,92.39
2019-03-29T07:56:18.351Z,91.65
2019-03-29T07:58:47.375Z,90.96
2019-03-29T08:01:18.919Z,92.13
2019-03-29T08:03:47.580Z,92.60
2019-03-29T08:06:17.241Z,92.05
2019-03-29T08:08:47.358Z,90.26
2019-03-29T08:11:26.124Z,89.82
2019-03-29T08:13:48.231Z,90.09
2019-03-29T08:16:19.470Z,90.21
2019-03-29T08:18:48.389Z,89.52
2019-03-29T08:21:17.624Z,87.40
2019-03-29T08:23:46.212Z,86.47
2019-03-29T08:26:16.497Z,86.26
2019-03-29T08:28:45.464Z,87.20
2019-03-29T08:31:15.856Z,87.39
2019-03-29T08:33:44.826Z,88.65
2019-03-29T08:36:13.465Z,87.01
2019-03-29T08:38:42.082Z,87.05
2019-03-29T08:41:10.723Z,87.23
2019-03-29T08:43:39.844Z,87.35
2019-03-29T08:46:08.572Z,87.24
2019-03-29T08:48:37.179Z,85.63
2019-03-29T08:51:05.919Z,85.59
2019-03-29T08:53:34.558Z,84.45
2019-03-29T08:56:03.302Z,84.25
2019-03-29T08:58:32.027Z,85.97
2019-03-29T09:01:00.840Z,85.99
2019-03-29T09:03:30.025Z,85.05
2019-03-29T09:05:58.664Z,84.32
2019-03-29T09:08:27.633Z,85.76
2019-03-29T09:10:56.386Z,84.95
2019-03-29T09:13:25.148Z,84.38
2019-03-29T09:15:53.812Z,83.88
2019-03-29T09:18:25.740Z,83.73
2019-03-29T09:20:53.127Z,83.73
2019-03-29T09:23:23.363Z,84.38
2019-03-29T09:25:52.499Z,82.50
2019-03-29T09:28:21.112Z,82.90
2019-03-29T09:30:49.715Z,80.77
2019-03-29T09:33:18.323Z,81.58
2019-03-29T09:35:47.037Z,81.16
2019-03-29T09:38:15.666Z,83.88
2019-03-29T09:40:52.202Z,81.69
2019-03-29T09:43:16.568Z,81.34
2019-03-29T09:45:45.714Z,80.60
2019-03-29T09:48:17.305Z,80.62
2019-03-29T09:50:50.449Z,81.52
2019-03-29T09:53:18.212Z,81.35
2019-03-29T09:55:53.163Z,82.36
2019-03-29T09:58:20.049Z,81.78
2019-03-29T10:00:49.268Z,81.65
2019-03-29T10:03:17.997Z,81.48
2019-03-29T10:05:48.115Z,82.66
2019-03-29T10:08:20.062Z,81.88
2019-03-29T10:10:49.017Z,79.23
2019-03-29T10:13:17.626Z,80.12
2019-03-29T10:15:51.282Z,82.44
2019-03-29T10:18:19.581Z,81.32
2019-03-29T10:20:48.421Z,79.48
2019-03-29T10:23:17.069Z,78.87
2019-03-29T10:25:46.169Z,78.29
2019-03-29T10:28:16.900Z,79.14
2019-03-29T10:30:46.862Z,79.34
2019-03-29T10:33:17.251Z,80.22
2019-03-29T10:35:52.293Z,78.46
2019-03-29T10:38:18.378Z,79.31
2019-03-29T10:40:47.344Z,77.84
2019-03-29T10:43:17.581Z,78.96
2019-03-29T10:45:49.393Z,75.12
2019-03-29T10:48:18.214Z,74.35
2019-03-29T10:50:50.889Z,73.74
2019-03-29T10:53:19.467Z,74.56
2019-03-29T10:55:48.418Z,76.08
2019-03-29T10:58:18.641Z,74.87
2019-03-29T11:00:47.275Z,73.43
2019-03-29T11:03:17.349Z,76.21
2019-03-29T11:05:47.474Z,73.76
2019-03-29T11:08:19.400Z,74.87
2019-03-29T11:10:48.104Z,75.14
2019-03-29T11:13:18.301Z,71.93
2019-03-29T11:15:49.665Z,70.17
2019-03-29T11:18:18.231Z,71.89
2019-03-29T11:20:50.377Z,72.12
2019-03-29T11:23:19.087Z,72.49
2019-03-29T11:25:48.841Z,72.22
2019-03-29T11:28:17.753Z,67.87
2019-03-29T11:30:46.779Z,67.59
2019-03-29T11:33:18.168Z,69.94
2019-03-29T11:35:50.174Z,68.78
2019-03-29T11:38:18.734Z,68.16
2019-03-29T11:40:47.290Z,67.91
2019-03-29T11:43:26.454Z,68.68
2019-03-29T11:45:48.015Z,68.95
2019-03-29T11:48:38.772Z,67.11
2019-03-29T11:51:18.629Z,65.15
2019-03-29T11:53:39.880Z,66.45
2019-03-29T11:56:08.317Z,65.57
2019-03-29T11:58:37.028Z,66.37
2019-03-29T12:01:05.751Z,64.95
2019-03-29T12:03:34.555Z,66.68
2019-03-29T12:06:03.165Z,65.17
2019-03-29T12:08:31.747Z,65.52
2019-03-29T12:11:00.794Z,64.82
2019-03-29T12:13:40.475Z,69.14
2019-03-29T12:15:59.760Z,66.01
2019-03-29T12:18:28.369Z,63.89
2019-03-29T12:20:57.077Z,65.31
2019-03-29T12:23:26.002Z,69.29
2019-03-29T12:25:54.719Z,63.97
2019-03-29T12:28:23.335Z,63.12
2019-03-29T12:30:51.949Z,64.04
2019-03-29T12:33:20.991Z,63.44
2019-03-29T12:35:49.703Z,67.04
2019-03-29T12:38:18.275Z,61.97
2019-03-29T12:40:47.552Z,62.58
2019-03-29T12:43:18.860Z,62.39
2019-03-29T12:45:47.469Z,62.26
2019-03-29T12:48:18.963Z,65.21
2019-03-29T12:50:47.575Z,62.30
2019-03-29T12:53:18.948Z,65.80
2019-03-29T12:55:47.658Z,65.61
2019-03-29T12:58:16.339Z,62.46
2019-03-29T13:00:46.732Z,64.73
2019-03-29T13:03:18.235Z,63.54
2019-03-29T13:05:50.081Z,63.93
2019-03-29T13:08:18.634Z,64.09
2019-03-29T13:10:47.432Z,62.04
2019-03-29T13:13:18.821Z,66.44
2019-03-29T13:15:47.541Z,66.69
2019-03-29T13:18:19.136Z,66.77
2019-03-29T13:20:47.858Z,66.04
2019-03-29T13:23:17.123Z,64.08
2019-03-29T13:25:45.801Z,63.25
2019-03-29T13:28:17.204Z,67.49
2019-03-29T13:30:47.460Z,68.52
2019-03-29T13:33:20.767Z,66.74
2019-03-29T13:36:08.630Z,68.50
2019-03-29T13:41:31.173Z,64.71
2019-03-29T13:44:03.783Z,70.66
2019-03-29T13:46:38.327Z,69.75
2019-03-29T13:49:06.904Z,69.93
2019-03-29T13:51:35.979Z,69.80
2019-03-29T13:54:10.006Z,69.52
2019-03-29T13:56:39.050Z,68.92
2019-03-29T13:59:11.556Z,69.33
2019-03-29T14:01:41.008Z,70.76
2019-03-29T14:04:09.611Z,71.22
2019-03-29T14:06:38.431Z,69.32
2019-03-29T14:09:07.990Z,70.83
2019-03-29T14:11:37.100Z,67.55
2019-03-29T14:14:05.710Z,69.60
2019-03-29T14:16:34.324Z,70.24
2019-03-29T14:19:03.197Z,70.20
2019-03-29T14:21:39.058Z,69.43
2019-03-29T14:24:07.016Z,67.92
2019-03-29T14:26:36.035Z,68.99
2019-03-29T14:29:16.971Z,68.95
2019-03-29T14:31:54.187Z,66.72
2019-03-29T14:34:22.675Z,63.59
2019-03-29T14:36:51.292Z,63.91
2019-03-29T14:39:19.900Z,66.19
2019-03-29T14:41:48.622Z,66.94
2019-03-29T14:44:17.474Z,68.43
2019-03-29T14:46:48.827Z,67.79
2019-03-29T14:49:17.378Z,67.16
2019-03-29T14:51:47.604Z,70.39
2019-03-29T14:54:19.496Z,69.10
2019-03-29T14:56:48.105Z,68.63
2019-03-29T14:59:18.200Z,67.81
2019-03-29T15:01:49.508Z,66.56
2019-03-29T15:04:18.351Z,66.57
2019-03-29T15:06:47.174Z,66.22
2019-03-29T15:09:16.101Z,65.47
2019-03-29T15:11:44.921Z,65.07
2019-03-29T15:14:15.524Z,67.29
2019-03-29T15:16:44.605Z,68.96
2019-03-29T15:19:13.210Z,70.08
2019-03-29T15:21:41.824Z,68.82
2019-03-29T15:24:10.454Z,69.14
2019-03-29T15:26:39.049Z,67.52
2019-03-29T15:29:07.671Z,65.83
2019-03-29T15:31:36.287Z,67.46
2019-03-29T15:34:10.815Z,66.93
2019-03-29T15:36:39.515Z,67.78
2019-03-29T15:39:08.378Z,68.19
2019-03-29T15:41:36.954Z,70.12
2019-03-29T15:44:05.499Z,70.80
2019-03-29T15:46:34.116Z,71.37
2019-03-29T15:49:02.671Z,71.28
2019-03-29T15:51:31.349Z,71.51
2019-03-29T15:54:00.082Z,70.29
2019-03-29T15:56:28.712Z,69.01
2019-03-29T15:58:57.272Z,67.70
2019-03-29T16:01:25.854Z,66.72
2019-03-29T16:03:54.492Z,69.18
2019-03-29T16:06:23.074Z,68.09
2019-03-29T16:08:51.629Z,66.30
2019-03-29T16:11:22.529Z,66.93
2019-03-29T16:13:50.506Z,67.02
2019-03-29T16:16:19.115Z,67.81
2019-03-29T16:18:47.745Z,67.16
2019-03-29T16:21:16.729Z,68.29
2019-03-29T16:23:48.368Z,67.41
2019-03-29T16:26:16.993Z,67.31
2019-03-29T16:28:45.952Z,70.08
2019-03-29T16:31:14.703Z,69.50
2019-03-29T16:33:43.837Z,72.01
2019-03-29T16:36:12.575Z,69.11
2019-03-29T16:38:41.223Z,70.99
2019-03-29T16:41:09.770Z,70.38
2019-03-29T16:43:38.359Z,69.81
2019-03-29T16:46:07.386Z,69.79
2019-03-29T16:48:36.035Z,70.22
2019-03-29T16:51:04.660Z,69.96
2019-03-29T16:53:33.310Z,71.23
2019-03-29T16:56:02.341Z,70.06
2019-03-29T16:58:31.395Z,70.69
2019-03-29T17:00:59.992Z,70.35
2019-03-29T17:03:28.623Z,70.72
2019-03-29T17:05:57.259Z,73.27
2019-03-29T17:08:25.828Z,73.98
2019-03-29T17:10:54.388Z,76.28
2019-03-29T17:13:22.976Z,72.33
2019-03-29T17:16:01.845Z,72.66
2019-03-29T17:18:29.089Z,74.35
2019-03-29T17:20:52.743Z,75.25
2019-03-29T17:23:21.374Z,76.70
2019-03-29T17:25:50.251Z,76.40
2019-03-29T17:28:18.814Z,77.69
2019-03-29T17:30:49.010Z,77.35
2019-03-29T17:33:17.583Z,76.68
2019-03-29T17:35:47.857Z,78.10
2019-03-29T17:38:17.497Z,78.10
2019-03-29T17:40:48.790Z,77.71
2019-03-29T17:43:17.369Z,77.79
2019-03-29T17:45:47.431Z,79.74
2019-03-29T17:48:19.456Z,80.30
2019-03-29T17:50:48.379Z,80.12
2019-03-29T17:53:16.935Z,80.47
2019-03-29T17:55:45.507Z,81.01
2019-03-29T17:58:14.231Z,81.05
2019-03-29T18:00:42.826Z,81.81
2019-03-29T18:03:12.144Z,81.66
2019-03-29T18:05:41.062Z,81.42
2019-03-29T18:08:09.844Z,82.12
2019-03-29T18:10:38.654Z,82.13
2019-03-29T18:13:07.464Z,82.01
2019-03-29T18:15:36.665Z,82.47
2019-03-29T18:18:05.441Z,82.91
2019-03-29T18:20:34.155Z,82.06
2019-03-29T18:23:02.712Z,82.41
2019-03-29T18:25:31.736Z,82.58
2019-03-29T18:28:00.758Z,83.00
2019-03-29T18:30:38.878Z,83.05
2019-03-29T18:33:08.117Z,83.07
2019-03-29T18:35:36.835Z,83.16
2019-03-29T18:38:05.894Z,83.12
2019-03-29T18:40:34.534Z,83.51
2019-03-29T18:43:03.231Z,83.58
2019-03-29T18:45:31.866Z,83.71
2019-03-29T18:48:00.617Z,83.96
2019-03-29T18:50:29.247Z,84.45
2019-03-29T18:52:58.188Z,84.35
2019-03-29T18:55:26.767Z,84.50
2019-03-29T18:57:55.699Z,84.71
2019-03-29T19:00:29.610Z,84.85
2019-03-29T19:02:58.240Z,85.29
2019-03-29T19:05:27.714Z,85.54
2019-03-29T19:07:56.249Z,85.89
2019-03-29T19:10:24.804Z,86.39
2019-03-29T19:12:53.420Z,86.62
2019-03-29T19:15:22.440Z,87.07
2019-03-29T19:17:51.154Z,87.58
2019-03-29T19:20:27.216Z,88.18
2019-03-29T19:22:50.003Z,88.77
2019-03-29T19:25:18.574Z,88.79
2019-03-29T19:27:47.586Z,88.92
2019-03-29T19:30:16.733Z,89.23
2019-03-29T19:32:46.166Z,89.35
2019-03-29T19:35:16.629Z,89.47
2019-03-29T19:37:48.901Z,89.55
2019-03-29T19:40:18.545Z,90.06
2019-03-29T19:42:47.705Z,90.46
2019-03-29T19:45:18.958Z,90.86
2019-03-29T19:47:47.617Z,91.14
2019-03-29T19:50:17.607Z,91.44
2019-03-29T19:52:46.191Z,91.95
2019-03-29T19:55:16.486Z,92.55
2019-03-29T19:57:46.591Z,93.21
2019-03-29T20:00:17.224Z,93.60
2019-03-29T20:02:47.394Z,93.71
2019-03-29T20:05:27.466Z,93.92
2019-03-29T20:07:56.380Z,94.36
2019-03-29T20:10:25.426Z,94.65
2019-03-29T20:12:54.275Z,94.84
2019-03-29T20:15:24.392Z,94.94
2019-03-29T20:17:53.144Z,95.07
2019-03-29T20:20:26.278Z,95.21
2019-03-29T20:22:56.003Z,95.34
2019-03-29T20:25:25.105Z,95.51
2019-03-29T20:27:57.991Z,95.62
2019-03-29T20:30:25.253Z,95.69
2019-03-29T20:32:54.224Z,95.84
2019-03-29T20:35:22.765Z,95.94
2019-03-29T20:37:51.851Z,96.14
2019-03-29T20:40:20.399Z,96.32
2019-03-29T20:42:48.979Z,96.45
2019-03-29T20:45:17.600Z,96.47
2019-03-29T20:47:46.322Z,96.73
2019-03-29T20:50:18.372Z,96.91
2019-03-29T20:52:47.410Z,96.97
2019-03-29T20:55:18.723Z,96.99
2019-03-29T20:57:47.308Z,96.97
2019-03-29T21:00:17.078Z,97.21
2019-03-29T21:02:45.724Z,97.36
2019-03-29T21:05:17.161Z,97.43
2019-03-29T21:07:47.262Z,97.58
2019-03-29T21:10:18.802Z,97.61
2019-03-29T21:12:47.582Z,97.70
2019-03-29T21:15:16.320Z,97.76
2019-03-29T21:17:56.687Z,97.84
2019-03-29T21:20:16.992Z,97.90
2019-03-29T21:22:45.578Z,97.98
2019-03-29T21:25:17.029Z,98.11
2019-03-29T21:27:45.612Z,98.33
2019-03-29T21:30:15.808Z,98.46
2019-03-29T21:32:45.516Z,98.59
2019-03-29T21:35:16.195Z,98.64
2019-03-29T21:37:46.512Z,98.68
2019-03-29T21:40:18.494Z,98.67
2019-03-29T21:42:47.076Z,98.68
2019-03-29T21:45:28.065Z,98.74
2019-03-29T21:48:01.534Z,99.49
2019-03-29T21:50:18.385Z,99.49
2019-03-29T21:52:47.453Z,99.32
2019-03-29T21:55:18.822Z,99.52
2019-03-29T21:57:47.397Z,99.65
2019-03-29T22:00:19.053Z,99.78
2019-03-29T22:02:47.606Z,99.90
2019-03-29T22:05:19.227Z,99.86
2019-03-29T22:07:47.778Z,99.81
2019-03-29T22:10:16.511Z,99.83
2019-03-29T22:12:45.134Z,99.89
2019-03-29T22:15:16.392Z,99.92
2019-03-29T22:17:45.016Z,99.99
2019-03-29T22:20:14.008Z,100.00
2019-03-29T22:22:42.569Z,100.00
2019-03-29T22:25:11.277Z,100.00
2019-03-29T22:27:40.225Z,100.00
2019-03-29T22:30:11.164Z,100.00
2019-03-29T22:32:40.110Z,100.00
2019-03-29T22:35:09.229Z,100.00
2019-03-29T22:37:37.850Z,100.00
2019-03-29T22:40:10.233Z,100.00
2019-03-29T22:42:38.788Z,100.00
2019-03-29T22:45:09.484Z,100.00
2019-03-29T22:47:38.204Z,100.00
2019-03-29T22:50:08.188Z,100.00
2019-03-29T22:52:36.757Z,100.00
2019-03-29T22:55:09.561Z,100.00
2019-03-29T22:57:38.121Z,100.00
2019-03-29T23:00:44.016Z,100.00
2019-03-29T23:03:12.711Z,100.00
2019-03-29T23:05:41.288Z,100.00
2019-03-29T23:08:09.992Z,100.00
2019-03-29T23:10:38.574Z,100.00
2019-03-29T23:13:07.137Z,100.00
2019-03-29T23:15:35.923Z,100.00
2019-03-29T23:18:04.549Z,100.00
2019-03-29T23:20:33.135Z,100.00
2019-03-29T23:23:01.688Z,100.00
2019-03-29T23:25:30.276Z,100.00
2019-03-29T23:27:58.902Z,100.00
2019-03-29T23:30:27.481Z,100.00
2019-03-29T23:32:56.042Z,100.00
2019-03-29T23:35:24.619Z,100.00
2019-03-29T23:37:53.250Z,100.00
2019-03-29T23:40:21.835Z,100.00
2019-03-29T23:42:50.404Z,100.00
2019-03-29T23:45:18.984Z,100.00
2019-03-29T23:47:47.537Z,100.00
2019-03-29T23:50:19.225Z,100.00
2019-03-29T23:52:47.780Z,100.00
2019-03-29T23:55:16.435Z,100.00
2019-03-29T23:57:44.988Z,100.00
